createdAt,value
2018-05-01T00:01:49.169Z,99935.52
2018-05-01T00:04:15.387Z,99938.09
2018-05-01T00:06:41.529Z,99942.47
2018-05-01T00:09:07.690Z,99946.00
2018-05-01T00:11:34.278Z,99943.78
2018-05-01T00:14:00.464Z,99942.47
2018-05-01T00:16:26.611Z,99933.77
2018-05-01T00:18:53.129Z,99935.47
2018-05-01T00:21:19.275Z,99938.14
2018-05-01T00:23:46.207Z,99944.20
2018-05-01T00:26:12.344Z,99962.95
2018-05-01T00:28:38.761Z,99976.95
2018-05-01T00:31:05.341Z,99986.95
2018-05-01T00:33:31.490Z,99986.13
2018-05-01T00:35:57.643Z,99988.80
2018-05-01T00:38:23.822Z,100001.50
2018-05-01T00:40:49.973Z,99997.14
2018-05-01T00:43:16.142Z,99989.76
2018-05-01T00:45:42.281Z,99991.95
2018-05-01T00:48:08.476Z,99991.08
2018-05-01T00:50:34.914Z,99985.88
2018-05-01T00:53:01.055Z,99991.13
2018-05-01T00:55:27.240Z,99981.99
2018-05-01T00:57:53.377Z,99982.44
2018-05-01T01:00:19.928Z,99986.36
2018-05-01T01:02:46.869Z,99988.59
2018-05-01T01:05:13.017Z,99991.73
2018-05-01T01:07:39.162Z,99982.12
2018-05-01T01:10:05.396Z,99983.88
2018-05-01T01:12:31.543Z,99979.56
2018-05-01T01:14:57.718Z,99977.38
2018-05-01T01:17:23.859Z,99977.46
2018-05-01T01:19:50.410Z,99979.70
2018-05-01T01:22:16.561Z,99984.94
2018-05-01T01:24:43.029Z,99973.16
2018-05-01T01:27:09.198Z,99987.20
2018-05-01T01:29:35.429Z,99990.70
2018-05-01T01:32:16.974Z,99987.70
2018-05-01T01:34:43.132Z,99992.11
2018-05-01T01:37:09.426Z,99986.91
2018-05-01T01:39:35.513Z,99993.46
2018-05-01T01:42:01.425Z,99983.90
2018-05-01T01:44:27.341Z,99991.41
2018-05-01T01:46:53.266Z,100002.41
2018-05-01T01:49:19.173Z,99992.81
2018-05-01T01:51:45.213Z,99987.66
2018-05-01T01:54:11.123Z,99989.02
2018-05-01T01:56:37.312Z,99990.80
2018-05-01T01:59:03.674Z,99992.55
2018-05-01T02:01:29.582Z,99989.09
2018-05-01T02:03:55.494Z,99986.97
2018-05-01T02:06:21.417Z,99982.21
2018-05-01T02:08:47.320Z,99976.14
2018-05-01T02:11:13.222Z,99977.02
2018-05-01T02:13:39.166Z,99979.59
2018-05-01T02:16:05.143Z,99978.72
2018-05-01T02:18:31.037Z,99981.42
2018-05-01T02:20:56.944Z,99982.30
2018-05-01T02:23:22.897Z,99978.85
2018-05-01T02:25:48.817Z,99992.42
2018-05-01T02:28:14.997Z,99974.97
2018-05-01T02:30:40.943Z,99971.88
2018-05-01T02:33:06.857Z,99972.74
2018-05-01T02:35:33.065Z,99975.80
2018-05-01T02:37:59.000Z,99980.69
2018-05-01T02:40:25.049Z,99977.63
2018-05-01T02:42:50.956Z,99975.88
2018-05-01T02:45:16.864Z,99976.28
2018-05-01T02:47:42.795Z,99978.85
2018-05-01T02:50:09.003Z,99981.03
2018-05-01T02:52:34.945Z,99986.75
2018-05-01T02:55:01.393Z,99978.42
2018-05-01T02:57:27.360Z,99980.16
2018-05-01T02:59:53.265Z,99983.17
2018-05-01T03:02:19.532Z,99983.22
2018-05-01T03:04:45.493Z,99985.44
2018-05-01T03:07:11.395Z,99988.50
2018-05-01T03:09:37.693Z,99975.45
2018-05-01T03:12:04.074Z,99976.84
2018-05-01T03:14:29.982Z,99972.88
2018-05-01T03:16:55.881Z,99973.35
2018-05-01T03:19:21.935Z,99976.37
2018-05-01T03:21:47.841Z,99979.03
2018-05-01T03:24:13.743Z,99976.45
2018-05-01T03:26:39.672Z,99977.77
2018-05-01T03:29:05.570Z,99979.95
2018-05-01T03:31:31.552Z,99976.06
2018-05-01T03:33:57.490Z,99976.94
2018-05-01T03:36:23.433Z,99979.16
2018-05-01T03:38:49.674Z,99975.77
2018-05-01T03:41:15.572Z,99979.63
2018-05-01T03:43:41.636Z,99974.45
2018-05-01T03:46:07.550Z,99974.97
2018-05-01T03:48:33.441Z,99979.33
2018-05-01T03:50:59.405Z,99971.05
2018-05-01T03:53:25.309Z,99978.50
2018-05-01T03:55:51.231Z,99981.16
2018-05-01T03:58:17.173Z,99974.66
2018-05-01T04:00:43.088Z,99967.25
2018-05-01T04:03:10.360Z,99973.36
2018-05-01T04:05:36.264Z,99970.35
2018-05-01T04:08:02.169Z,99964.28
2018-05-01T04:10:28.225Z,99971.27
2018-05-01T04:12:54.134Z,99965.16
2018-05-01T04:15:20.046Z,99961.23
2018-05-01T04:17:45.981Z,99966.47
2018-05-01T04:20:11.889Z,99966.47
2018-05-01T04:22:38.099Z,99957.79
2018-05-01T04:25:04.458Z,99967.38
2018-05-01T04:27:30.367Z,99962.58
2018-05-01T04:29:56.274Z,99969.13
2018-05-01T04:32:22.663Z,99961.76
2018-05-01T04:34:48.585Z,99974.84
2018-05-01T04:37:14.498Z,99977.02
2018-05-01T04:39:40.579Z,99973.14
2018-05-01T04:42:06.481Z,99974.40
2018-05-01T04:44:32.390Z,99968.25
2018-05-01T04:46:58.331Z,99977.42
2018-05-01T04:49:24.296Z,99964.77
2018-05-01T04:51:50.264Z,99973.48
2018-05-01T04:54:16.146Z,99969.13
2018-05-01T04:56:42.197Z,99972.61
2018-05-01T04:59:08.340Z,99957.34
2018-05-01T05:01:34.249Z,99962.10
2018-05-01T05:04:00.278Z,99957.27
2018-05-01T05:06:26.428Z,99962.10
2018-05-01T05:08:52.341Z,99960.83
2018-05-01T05:11:18.533Z,99950.38
2018-05-01T05:13:44.689Z,99958.70
2018-05-01T05:16:10.589Z,99965.64
2018-05-01T05:18:36.843Z,99959.58
2018-05-01T05:21:02.746Z,99958.39
2018-05-01T05:23:28.641Z,99956.73
2018-05-01T05:25:54.908Z,99966.25
2018-05-01T05:28:20.946Z,99958.79
2018-05-01T05:30:46.852Z,99965.41
2018-05-01T05:33:12.763Z,99961.92
2018-05-01T05:35:38.734Z,99968.91
2018-05-01T05:38:04.710Z,99951.02
2018-05-01T05:40:30.647Z,99954.11
2018-05-01T05:42:56.609Z,99955.91
2018-05-01T05:45:22.546Z,99956.83
2018-05-01T05:47:48.704Z,99955.59
2018-05-01T05:50:14.659Z,99953.03
2018-05-01T05:52:40.856Z,99956.95
2018-05-01T05:55:06.757Z,99956.52
2018-05-01T05:57:32.725Z,99957.42
2018-05-01T05:59:58.929Z,99953.55
2018-05-01T06:02:24.831Z,99950.09
2018-05-01T06:04:50.880Z,99959.25
2018-05-01T06:07:17.102Z,99960.12
2018-05-01T06:09:43.005Z,99946.61
2018-05-01T06:12:08.953Z,99957.08
2018-05-01T06:14:34.911Z,99963.22
2018-05-01T06:17:00.819Z,99954.06
2018-05-01T06:19:26.861Z,99957.56
2018-05-01T06:21:52.886Z,99959.34
2018-05-01T06:24:18.724Z,99954.98
2018-05-01T06:26:44.654Z,99961.09
2018-05-01T06:29:10.553Z,99971.12
2018-05-01T06:31:36.458Z,99951.94
2018-05-01T06:34:02.388Z,99954.55
2018-05-01T06:36:28.316Z,99957.16
2018-05-01T06:38:54.213Z,99952.84
2018-05-01T06:41:20.644Z,99946.70
2018-05-01T06:43:46.540Z,99953.63
2018-05-01T06:46:12.433Z,99957.95
2018-05-01T06:48:38.381Z,99953.11
2018-05-01T06:51:04.297Z,99947.92
2018-05-01T06:53:30.332Z,99950.06
2018-05-01T06:55:56.237Z,99947.44
2018-05-01T06:58:22.136Z,99956.16
2018-05-01T07:00:48.474Z,99959.30
2018-05-01T07:03:14.374Z,99954.98
2018-05-01T07:05:40.282Z,99956.77
2018-05-01T07:08:06.257Z,99957.24
2018-05-01T07:10:32.148Z,99955.94
2018-05-01T07:12:58.037Z,99953.76
2018-05-01T07:15:23.982Z,99952.50
2018-05-01T07:17:50.037Z,99945.12
2018-05-01T07:20:15.954Z,99957.77
2018-05-01T07:22:41.862Z,99946.03
2018-05-01T07:25:08.057Z,99946.47
2018-05-01T07:27:33.984Z,99942.52
2018-05-01T07:29:59.909Z,99940.80
2018-05-01T07:32:25.837Z,99940.77
2018-05-01T07:34:51.774Z,99938.50
2018-05-01T07:37:18.531Z,99944.16
2018-05-01T07:39:44.467Z,99942.91
2018-05-01T07:42:10.402Z,99969.15
2018-05-01T07:44:36.353Z,99952.15
2018-05-01T07:47:02.317Z,99957.86
2018-05-01T07:49:28.213Z,99954.77
2018-05-01T07:51:54.121Z,99970.94
2018-05-01T07:54:20.257Z,99956.55
2018-05-01T07:56:46.137Z,99959.20
2018-05-01T07:59:12.042Z,99963.09
2018-05-01T08:01:38.255Z,99966.18
2018-05-01T08:04:04.171Z,99970.58
2018-05-01T08:06:30.536Z,99964.13
2018-05-01T08:08:56.449Z,99969.80
2018-05-01T08:11:23.050Z,99980.18
2018-05-01T08:13:48.992Z,99979.62
2018-05-01T08:16:14.906Z,99977.39
2018-05-01T08:18:40.865Z,100001.37
2018-05-01T08:21:06.792Z,99996.18
2018-05-01T08:23:32.983Z,99999.67
2018-05-01T08:25:58.891Z,100005.42
2018-05-01T08:28:24.847Z,100008.56
2018-05-01T08:30:50.740Z,100007.77
2018-05-01T08:33:16.653Z,100013.36
2018-05-01T08:35:42.601Z,100021.47
2018-05-01T08:38:08.522Z,100034.27
2018-05-01T08:40:34.421Z,100036.72
2018-05-01T08:43:00.411Z,100039.30
2018-05-01T08:45:26.323Z,100036.16
2018-05-01T08:47:52.295Z,100044.09
2018-05-01T08:50:18.515Z,100053.77
2018-05-01T08:52:44.742Z,100047.35
2018-05-01T08:55:10.695Z,100050.52
2018-05-01T08:57:36.593Z,100055.32
2018-05-01T09:00:02.497Z,100064.84
2018-05-01T09:02:28.438Z,100069.59
2018-05-01T09:04:54.355Z,100071.61
2018-05-01T09:07:20.290Z,100060.67
2018-05-01T09:09:46.251Z,100077.08
2018-05-01T09:12:12.157Z,100089.09
2018-05-01T09:14:38.088Z,100086.55
2018-05-01T09:17:04.520Z,100085.80
2018-05-01T09:19:30.430Z,100086.67
2018-05-01T09:21:56.328Z,100089.30
2018-05-01T09:24:22.494Z,100093.66
2018-05-01T09:26:48.661Z,100121.64
2018-05-01T09:29:14.605Z,100124.66
2018-05-01T09:31:40.507Z,100116.38
2018-05-01T09:34:06.451Z,100121.64
2018-05-01T09:36:32.434Z,100115.34
2018-05-01T09:38:58.355Z,100143.66
2018-05-01T09:41:24.251Z,100134.10
2018-05-01T09:43:50.209Z,100141.67
2018-05-01T09:46:16.127Z,100142.70
2018-05-01T09:48:42.087Z,100153.65
2018-05-01T09:51:07.992Z,100156.27
2018-05-01T09:53:34.121Z,100144.89
2018-05-01T09:56:00.278Z,100148.84
2018-05-01T09:58:26.412Z,100163.28
2018-05-01T10:00:52.885Z,100167.72
2018-05-01T10:03:19.426Z,100164.70
2018-05-01T10:05:45.601Z,100176.95
2018-05-01T10:08:11.769Z,100170.05
2018-05-01T10:10:37.939Z,100183.64
2018-05-01T10:13:04.438Z,100192.77
2018-05-01T10:15:30.602Z,100191.42
2018-05-01T10:17:56.765Z,100207.44
2018-05-01T10:20:22.957Z,100199.12
2018-05-01T10:22:49.097Z,100197.81
2018-05-01T10:25:15.281Z,100203.41
2018-05-01T10:27:41.501Z,100210.38
2018-05-01T10:30:07.704Z,100220.81
2018-05-01T10:32:33.854Z,100222.52
2018-05-01T10:35:00.035Z,100228.23
2018-05-01T10:37:26.174Z,100244.11
2018-05-01T10:39:52.393Z,100249.78
2018-05-01T10:42:18.571Z,100242.30
2018-05-01T10:44:44.731Z,100251.92
2018-05-01T10:47:11.019Z,100255.92
2018-05-01T10:49:37.161Z,100261.23
2018-05-01T10:52:03.391Z,100257.73
2018-05-01T10:54:29.556Z,100268.64
2018-05-01T10:56:55.708Z,100259.99
2018-05-01T10:59:21.878Z,100267.04
2018-05-01T11:01:48.043Z,100279.80
2018-05-01T11:04:14.226Z,100295.59
2018-05-01T11:06:40.361Z,100287.81
2018-05-01T11:09:06.866Z,100313.17
2018-05-01T11:11:33.014Z,100302.30
2018-05-01T11:13:59.163Z,100315.84
2018-05-01T11:16:25.419Z,100312.43
2018-05-01T11:18:51.577Z,100324.23
2018-05-01T11:21:18.008Z,100345.69
2018-05-01T11:23:44.238Z,100350.05
2018-05-01T11:26:10.455Z,100328.25
2018-05-01T11:28:36.576Z,100360.08
2018-05-01T11:31:03.024Z,100369.27
2018-05-01T11:33:29.195Z,100370.60
2018-05-01T11:35:55.358Z,100381.06
2018-05-01T11:38:21.693Z,100390.25
2018-05-01T11:40:47.838Z,100381.56
2018-05-01T11:43:14.365Z,100401.55
2018-05-01T11:45:40.552Z,100401.11
2018-05-01T11:48:07.024Z,100405.94
2018-05-01T11:50:33.592Z,100424.27
2018-05-01T11:52:59.730Z,100422.97
2018-05-01T11:55:25.865Z,100425.61
2018-05-01T11:57:52.381Z,100453.63
2018-05-01T12:00:18.517Z,100450.66
2018-05-01T12:02:44.912Z,100458.51
2018-05-01T12:05:11.076Z,100469.81
2018-05-01T12:07:37.223Z,100475.45
2018-05-01T12:10:03.401Z,100477.63
2018-05-01T12:12:29.557Z,100477.68
2018-05-01T12:14:56.081Z,100486.45
2018-05-01T12:17:22.261Z,100490.78
2018-05-01T12:19:48.392Z,100508.66
2018-05-01T12:22:14.838Z,100516.33
2018-05-01T12:24:41.269Z,100512.81
2018-05-01T12:27:07.427Z,100519.00
2018-05-01T12:29:33.588Z,100519.08
2018-05-01T12:32:00.122Z,100540.93
2018-05-01T12:34:26.313Z,100540.98
2018-05-01T12:36:52.566Z,100547.92
2018-05-01T12:39:18.763Z,100554.93
2018-05-01T12:41:44.894Z,100555.80
2018-05-01T12:44:11.103Z,100558.80
2018-05-01T12:46:37.257Z,100576.17
2018-05-01T12:49:03.465Z,100580.09
2018-05-01T12:51:29.618Z,100586.63
2018-05-01T12:53:55.772Z,100594.99
2018-05-01T12:56:22.048Z,100600.30
2018-05-01T12:58:48.231Z,100590.30
2018-05-01T13:01:14.368Z,100612.58
2018-05-01T13:03:41.866Z,100609.09
2018-05-01T13:06:08.051Z,100614.38
2018-05-01T13:08:34.173Z,100622.67
2018-05-01T13:11:00.381Z,100630.55
2018-05-01T13:13:26.516Z,100628.37
2018-05-01T13:15:52.666Z,100641.48
2018-05-01T13:18:18.882Z,100631.08
2018-05-01T13:20:45.033Z,100646.34
2018-05-01T13:23:11.617Z,100655.49
2018-05-01T13:25:38.071Z,100652.45
2018-05-01T13:28:04.214Z,100667.67
2018-05-01T13:30:30.636Z,100663.75
2018-05-01T13:32:56.868Z,100675.09
2018-05-01T13:35:23.561Z,100689.50
2018-05-01T13:37:49.744Z,100692.96
2018-05-01T13:40:15.883Z,100692.98
2018-05-01T13:42:42.040Z,100700.50
2018-05-01T13:45:08.454Z,100700.94
2018-05-01T13:47:34.585Z,100708.83
2018-05-01T13:50:00.733Z,100719.69
2018-05-01T13:52:26.976Z,100727.04
2018-05-01T13:54:53.104Z,100730.91
2018-05-01T13:57:19.258Z,100730.87
2018-05-01T13:59:45.433Z,100731.27
2018-05-01T14:02:11.561Z,100746.05
2018-05-01T14:04:37.728Z,100749.59
2018-05-01T14:07:03.860Z,100745.27
2018-05-01T14:09:30.074Z,100747.83
2018-05-01T14:11:56.536Z,100746.48
2018-05-01T14:14:22.681Z,100760.45
2018-05-01T14:16:48.894Z,100775.44
2018-05-01T14:19:15.341Z,100776.70
2018-05-01T14:21:41.503Z,100768.87
2018-05-01T14:24:07.671Z,100780.63
2018-05-01T14:26:33.814Z,100781.97
2018-05-01T14:29:00.014Z,100795.93
2018-05-01T14:31:26.162Z,100794.19
2018-05-01T14:33:52.302Z,100814.14
2018-05-01T14:36:18.576Z,100794.48
2018-05-01T14:38:45.048Z,100804.97
2018-05-01T14:41:11.181Z,100804.98
2018-05-01T14:43:37.341Z,100811.11
2018-05-01T14:46:03.768Z,100821.94
2018-05-01T14:48:29.909Z,100831.96
2018-05-01T14:50:56.701Z,100828.55
2018-05-01T14:53:22.835Z,100830.32
2018-05-01T14:55:48.982Z,100832.98
2018-05-01T14:58:15.266Z,100841.75
2018-05-01T15:00:41.403Z,100853.06
2018-05-01T15:03:07.544Z,100852.22
2018-05-01T15:05:34.094Z,100853.52
2018-05-01T15:08:00.240Z,100858.31
2018-05-01T15:10:26.375Z,100874.42
2018-05-01T15:12:52.857Z,100876.18
2018-05-01T15:15:19.002Z,100874.02
2018-05-01T15:17:45.661Z,100876.16
2018-05-01T15:20:11.819Z,100883.59
2018-05-01T15:22:37.960Z,100891.01
2018-05-01T15:25:04.410Z,100901.06
2018-05-01T15:27:30.557Z,100908.08
2018-05-01T15:29:56.776Z,100908.95
2018-05-01T15:32:22.930Z,100923.33
2018-05-01T15:34:49.301Z,100913.31
2018-05-01T15:37:15.461Z,100916.34
2018-05-01T15:39:41.615Z,100918.11
2018-05-01T15:42:07.790Z,100930.75
2018-05-01T15:44:33.973Z,100942.95
2018-05-01T15:47:00.139Z,100948.61
2018-05-01T15:49:26.282Z,100945.54
2018-05-01T15:51:52.463Z,100959.02
2018-05-01T15:54:18.596Z,100955.55
2018-05-01T15:56:44.766Z,100959.47
2018-05-01T15:59:10.897Z,100959.92
2018-05-01T16:01:37.433Z,100970.38
2018-05-01T16:04:03.581Z,100964.75
2018-05-01T16:06:29.735Z,100972.61
2018-05-01T16:08:56.269Z,100982.59
2018-05-01T16:11:22.446Z,100989.59
2018-05-01T16:13:48.620Z,100982.65
2018-05-01T16:16:15.237Z,100986.98
2018-05-01T16:18:41.420Z,100981.76
2018-05-01T16:21:07.561Z,100985.25
2018-05-01T16:23:34.200Z,100996.16
2018-05-01T16:26:00.328Z,100999.67
2018-05-01T16:28:26.464Z,101007.55
2018-05-01T16:30:52.625Z,101014.95
2018-05-01T16:33:18.828Z,101011.05
2018-05-01T16:35:44.972Z,101004.95
2018-05-01T16:38:11.123Z,101014.11
2018-05-01T16:40:37.305Z,101007.16
2018-05-01T16:43:03.450Z,101010.20
2018-05-01T16:45:29.593Z,101014.12
2018-05-01T16:47:55.820Z,101020.64
2018-05-01T16:50:21.964Z,101024.58
2018-05-01T16:52:48.568Z,101024.18
2018-05-01T16:55:14.717Z,101028.11
2018-05-01T16:57:40.855Z,101024.61
2018-05-01T17:00:07.444Z,101028.97
2018-05-01T17:02:33.587Z,101031.12
2018-05-01T17:04:59.734Z,101033.29
2018-05-01T17:07:25.914Z,101040.20
2018-05-01T17:09:52.050Z,101040.11
2018-05-01T17:12:18.317Z,101040.89
2018-05-01T17:14:44.463Z,101038.02
2018-05-01T17:17:10.601Z,101049.14
2018-05-01T17:19:36.777Z,101052.45
2018-05-01T17:22:02.931Z,101054.90
2018-05-01T17:24:29.208Z,101050.97
2018-05-01T17:26:55.345Z,101044.80
2018-05-01T17:29:21.485Z,101056.83
2018-05-01T17:31:47.753Z,101057.73
2018-05-01T17:34:14.201Z,101055.43
2018-05-01T17:36:40.367Z,101065.61
2018-05-01T17:39:06.552Z,101068.42
2018-05-01T17:41:32.979Z,101066.61
2018-05-01T17:43:59.149Z,101075.30
2018-05-01T17:46:25.373Z,101072.23
2018-05-01T17:48:51.740Z,101076.21
2018-05-01T17:51:17.882Z,101087.34
2018-05-01T17:53:44.021Z,101085.39
2018-05-01T17:56:10.180Z,101092.09
2018-05-01T17:58:36.346Z,101094.71
2018-05-01T18:01:02.527Z,101097.73
2018-05-01T18:03:28.711Z,101115.11
2018-05-01T18:05:54.849Z,101108.84
2018-05-01T18:08:21.027Z,101118.67
2018-05-01T18:10:47.166Z,101115.06
2018-05-01T18:13:13.365Z,101114.13
2018-05-01T18:15:39.513Z,101124.15
2018-05-01T18:18:05.713Z,101126.77
2018-05-01T18:20:31.863Z,101132.00
2018-05-01T18:23:05.145Z,101142.11
2018-05-01T18:25:31.293Z,101137.02
2018-05-01T18:27:57.442Z,101150.20
2018-05-01T18:30:23.617Z,101150.75
2018-05-01T18:32:49.765Z,101146.49
2018-05-01T18:35:16.042Z,101161.00
2018-05-01T18:37:42.185Z,101164.97
2018-05-01T18:40:08.600Z,101175.54
2018-05-01T18:42:34.880Z,101179.08
2018-05-01T18:45:01.026Z,101183.05
2018-05-01T18:47:27.394Z,101184.38
2018-05-01T18:49:54.074Z,101184.86
2018-05-01T18:52:20.241Z,101193.66
2018-05-01T18:54:46.380Z,101205.91
2018-05-01T18:57:12.592Z,101207.70
2018-05-01T18:59:38.752Z,101209.48
2018-05-01T19:02:05.253Z,101213.02
2018-05-01T19:04:31.488Z,101216.50
2018-05-01T19:06:57.829Z,101219.58
2018-05-01T19:09:24.778Z,101229.19
2018-05-01T19:11:51.100Z,101235.21
2018-05-01T19:14:17.293Z,101237.28
2018-05-01T19:16:43.510Z,101245.48
2018-05-01T19:19:09.662Z,101249.29
2018-05-01T19:21:35.872Z,101258.77
2018-05-01T19:24:02.059Z,101262.14
2018-05-01T19:26:28.217Z,101263.28
2018-05-01T19:28:54.388Z,101266.66
2018-05-01T19:31:20.547Z,101265.28
2018-05-01T19:33:46.923Z,101264.78
2018-05-01T19:36:13.117Z,101274.34
2018-05-01T19:38:39.287Z,101276.46
2018-05-01T19:41:05.498Z,101280.77
2018-05-01T19:43:31.651Z,101280.25
2018-05-01T19:45:57.793Z,101281.16
2018-05-01T19:48:24.073Z,101279.78
2018-05-01T19:50:50.277Z,101289.34
2018-05-01T19:53:16.407Z,101282.75
2018-05-01T19:55:42.568Z,101291.86
2018-05-01T19:58:09.094Z,101290.06
2018-05-01T20:00:35.246Z,101289.15
2018-05-01T20:03:01.382Z,101289.55
2018-05-01T20:05:27.580Z,101293.46
2018-05-01T20:07:53.948Z,101297.81
2018-05-01T20:10:20.126Z,101293.44
2018-05-01T20:12:46.326Z,101289.53
2018-05-01T20:15:12.730Z,101282.97
2018-05-01T20:17:38.881Z,101286.92
2018-05-01T20:20:05.388Z,101283.03
2018-05-01T20:22:31.537Z,101285.63
2018-05-01T20:24:57.948Z,101284.32
2018-05-01T20:27:24.172Z,101284.32
2018-05-01T20:29:50.350Z,101282.57
2018-05-01T20:32:16.537Z,101280.80
2018-05-01T20:34:42.680Z,101282.98
2018-05-01T20:37:09.090Z,101287.39
2018-05-01T20:39:35.236Z,101282.20
2018-05-01T20:42:01.426Z,101276.95
2018-05-01T20:44:27.657Z,101274.74
2018-05-01T20:46:53.789Z,101265.13
2018-05-01T20:49:20.334Z,101260.75
2018-05-01T20:51:46.547Z,101265.59
2018-05-01T20:54:12.798Z,101274.78
2018-05-01T20:56:38.951Z,101274.81
2018-05-01T20:59:05.224Z,101271.39
2018-05-01T21:01:31.371Z,101276.98
2018-05-01T21:03:57.560Z,101272.59
2018-05-01T21:06:23.932Z,101280.91
2018-05-01T21:08:50.082Z,101277.41
2018-05-01T21:11:16.278Z,101280.47
2018-05-01T21:13:42.550Z,101286.14
2018-05-01T21:16:08.697Z,101290.54
2018-05-01T21:18:34.824Z,101301.91
2018-05-01T21:21:01.137Z,101310.65
2018-05-01T21:23:27.268Z,101310.67
2018-05-01T21:25:53.641Z,101313.33
2018-05-01T21:28:20.324Z,101313.32
2018-05-01T21:30:46.498Z,101320.73
2018-05-01T21:33:12.651Z,101324.68
2018-05-01T21:35:39.081Z,101326.86
2018-05-01T21:38:05.239Z,101336.91
2018-05-01T21:40:31.521Z,101336.45
2018-05-01T21:42:57.762Z,101351.31
2018-05-01T21:45:24.091Z,101342.56
2018-05-01T21:47:50.265Z,101354.33
2018-05-01T21:50:16.481Z,101361.80
2018-05-01T21:52:42.736Z,101363.09
2018-05-01T21:55:08.898Z,101372.70
2018-05-01T21:57:35.101Z,101367.45
2018-05-01T22:00:01.237Z,101370.48
2018-05-01T22:02:27.470Z,101371.34
2018-05-01T22:04:53.654Z,101379.21
2018-05-01T22:07:19.882Z,101381.85
2018-05-01T22:09:46.028Z,101387.55
2018-05-01T22:12:12.199Z,101387.09
2018-05-01T22:14:38.411Z,101387.53
2018-05-01T22:17:04.572Z,101389.72
2018-05-01T22:19:30.717Z,101394.50
2018-05-01T22:21:56.890Z,101395.79
2018-05-01T22:24:23.050Z,101391.41
2018-05-01T22:26:49.565Z,101397.05
2018-05-01T22:29:15.703Z,101397.89
2018-05-01T22:31:42.125Z,101398.30
2018-05-01T22:34:08.334Z,101406.98
2018-05-01T22:36:34.506Z,101404.77
2018-05-01T22:39:00.665Z,101410.89
2018-05-01T22:41:26.851Z,101411.28
2018-05-01T22:43:53.020Z,101409.52
2018-05-01T22:46:19.165Z,101414.30
2018-05-01T22:48:45.324Z,101416.52
2018-05-01T22:51:11.497Z,101408.66
2018-05-01T22:53:37.660Z,101418.70
2018-05-01T22:56:03.861Z,101419.59
2018-05-01T22:58:30.328Z,101426.10
2018-05-01T23:00:56.758Z,101428.31
2018-05-01T23:03:22.900Z,101419.14
2018-05-01T23:05:49.181Z,101425.70
2018-05-01T23:08:15.333Z,101427.91
2018-05-01T23:10:41.776Z,101423.97
2018-05-01T23:13:08.204Z,101430.09
2018-05-01T23:15:34.643Z,101430.09
2018-05-01T23:18:00.826Z,101428.77
2018-05-01T23:20:27.002Z,101434.48
2018-05-01T23:22:53.294Z,101429.30
2018-05-01T23:25:19.433Z,101435.87
2018-05-01T23:27:45.592Z,101439.36
2018-05-01T23:30:11.769Z,101431.50
2018-05-01T23:32:37.923Z,101438.05
2018-05-01T23:35:04.198Z,101438.05
2018-05-01T23:37:30.345Z,101438.07
2018-05-01T23:39:56.506Z,101443.75
2018-05-01T23:42:22.676Z,101441.94
2018-05-01T23:44:48.832Z,101452.41
2018-05-01T23:47:15.298Z,101450.69
2018-05-01T23:49:41.444Z,101454.20
2018-05-01T23:52:07.696Z,101468.63
2018-05-01T23:54:33.853Z,101459.02
2018-05-01T23:57:00.069Z,101451.17
2018-05-01T23:59:26.541Z,101446.36
